Potomac, Illinois
Current Conditions -  °F | °C
As of 4:55 PM on Thursday 23 Oct 2014 (Local Time) from KDNV Reporting Station
Clear Clear  
Wind Chill: 57°   Ceiling: Unl
Heat Index: 57°   Visibility: 10mi
Dew Point: 42°   Wind: 3mph
Humidity: 57%   Direction: 200°SSW
Pressure: 30.1"   Gusts: NA
Location:  40.31°N, 87.8°W
Report Text: KDNV 232155Z AUTO 20003KT 10SM CLR 14/06 A3010 RMK AO2 T01400056
Loading
Personal Weather Stations






























Interactive Weather Map
Tropical Storm Tracking
New forecast layout! Learn more

10-Day Weather Forecast

Advertisements
Track Severe Weather on mobile